< Typhoon 201523 2015 Season Typhoon 201525 >
Typhoon 201524 (KOPPU)
General InformationTrack Information on Google MapsDetailed Wind InformationForecast History on Google MapsAccess Analytics MapList of All Images || NewsDisaster Info.WeblogTrackbackTyphoon FrontTwiphoonTyphoon Now!Typhoon ImaginationDisaster Info. XMLResourceGoogle EarthGE AnimationAtom FeedGeoJSON
Detalied Best Track (Time Zone = UTC)
Year Month Day Hour Lat. Long. Pressure (hPa) Wind (kt) Class Image Chart
2015 10 12 00 13.8 151.0 1004 0 2 Image Chart
2015 10 12 06 14.4 148.9 1004 0 2 Image Chart
2015 10 12 12 14.8 147.4 1004 0 2 Image Chart
2015 10 12 18 15.5 145.6 1002 0 2 Image Chart
2015 10 13 00 15.9 142.7 1002 0 2 Image Chart
2015 10 13 06 16.0 140.5 1002 0 2 Image Chart
2015 10 13 12 16.0 139.2 1000 35 3 Image Chart
2015 10 13 18 15.9 137.7 1000 35 3 Image Chart
2015 10 14 00 15.9 136.4 1000 35 3 Image Chart
2015 10 14 06 15.7 135.1 1000 35 3 Image Chart
2015 10 14 12 15.6 134.0 1000 35 3 Image Chart
2015 10 14 18 15.5 133.0 998 35 3 Image Chart
2015 10 15 00 15.4 131.7 996 40 3 Image Chart
2015 10 15 06 15.5 130.0 990 50 4 Image Chart
2015 10 15 12 15.5 129.0 980 60 4 Image Chart
2015 10 15 18 15.5 128.1 970 70 5 Image Chart
2015 10 16 00 15.7 127.2 960 80 5 Image Chart
2015 10 16 06 15.6 126.2 955 85 5 Image Chart
2015 10 16 12 15.7 125.7 955 85 5 Image Chart
2015 10 16 18 15.8 125.1 950 90 5 Image Chart
2015 10 17 00 15.8 124.5 940 90 5 Image Chart
2015 10 17 06 15.8 123.8 930 95 5 Image Chart
2015 10 17 12 15.9 123.1 930 95 5 Image Chart
2015 10 17 18 16.1 122.1 925 100 5 Image Chart
2015 10 18 00 16.0 121.6 940 90 5 Image Chart
2015 10 18 06 16.1 121.4 950 80 5 Image Chart
2015 10 18 12 16.3 121.3 960 70 5 Image Chart
2015 10 18 18 17.0 120.6 970 60 4 Image Chart
2015 10 19 00 17.2 120.2 980 50 4 Image Chart
2015 10 19 06 17.8 120.1 985 45 3 Image Chart
2015 10 19 12 18.4 120.2 990 45 3 Image Chart
2015 10 19 18 18.7 120.4 992 40 3 Image Chart
2015 10 20 00 18.9 120.7 994 35 3 Image Chart
2015 10 20 06 19.1 121.2 996 35 3 Image Chart
2015 10 20 12 19.2 121.7 998 35 3 Image Chart
2015 10 20 18 19.2 122.2 998 35 3 Image Chart
2015 10 21 00 19.3 122.5 998 35 3 Image Chart
2015 10 21 06 19.4 122.7 1000 0 2 Image Chart
Japan Meteorological Agency Best Track Data | Correction Date : 2015-11-24
< Typhoon 201523 2015 Season Typhoon 201525 >

Help